VTBU/UTP METAR and TAF weather

Enter ICAO airport designator
Station Type Date Time Source
VTBU METAR 2020/09/26 23:30 UTC NOAA

VTBU 262330Z 32003KT 9999 FEW020 28/23 Q1007 NOSIG


Station Type Date Time Source
VTBU Decoded METAR 2020/09/26 23:30 UTC NOAA

Rayong, Thailand (VTBU) 12-38N 101-21E 5M
Sep 26, 2020 - 07:30 PM EDT / 2020.09.26 2330 UTC
Wind: from the NW (320 degrees) at 3 MPH (3 KT):0
Visibility: greater than 7 mile(s):0
Sky conditions: mostly clear
Temperature: 82 F (28 C)
Dew Point: 73 F (23 C)
Relative Humidity: 74%
Pressure (altimeter): 29.74 in. Hg (1007 hPa)
ob: VTBU 262330Z 32003KT 9999 FEW020 28/23 Q1007 NOSIG
cycle: 23

Station Type Date Time Source
VTBU TAF 2020/09/26 18:48 UTC NOAA

TAF COR TAF COR VTBU 261700Z 2618/2718 24006KT 9999 FEW020
BECMG 2619/2621 36003KT
BECMG 2702/2704 22010KT

Example: see airport list